sensor_id;sensor_type;location;lat;lon;timestamp;temperature;humidity
65707;SHT31;52423;43.512;5.220;2022-09-24T00:01:15;19.30;69.66
65707;SHT31;52423;43.512;5.220;2022-09-24T00:03:42;19.35;68.79
65707;SHT31;52423;43.512;5.220;2022-09-24T00:06:11;19.35;69.10
65707;SHT31;52423;43.512;5.220;2022-09-24T00:08:39;19.32;68.58
65707;SHT31;52423;43.512;5.220;2022-09-24T00:11:06;19.32;68.16
65707;SHT31;52423;43.512;5.220;2022-09-24T00:13:34;19.35;67.97
65707;SHT31;52423;43.512;5.220;2022-09-24T00:16:06;19.38;68.02
65707;SHT31;52423;43.512;5.220;2022-09-24T00:18:32;19.35;67.96
65707;SHT31;52423;43.512;5.220;2022-09-24T00:20:58;19.39;67.83
65707;SHT31;52423;43.512;5.220;2022-09-24T00:23:24;19.36;67.54
65707;SHT31;52423;43.512;5.220;2022-09-24T00:25:50;19.44;67.41
65707;SHT31;52423;43.512;5.220;2022-09-24T00:28:34;19.44;67.26
65707;SHT31;52423;43.512;5.220;2022-09-24T00:31:03;19.57;67.00
65707;SHT31;52423;43.512;5.220;2022-09-24T00:33:34;19.47;66.87
65707;SHT31;52423;43.512;5.220;2022-09-24T00:36:01;19.45;67.01
65707;SHT31;52423;43.512;5.220;2022-09-24T00:38:30;19.50;66.97
65707;SHT31;52423;43.512;5.220;2022-09-24T00:40:57;19.50;67.62
65707;SHT31;52423;43.512;5.220;2022-09-24T00:43:27;19.41;68.69
65707;SHT31;52423;43.512;5.220;2022-09-24T00:48:32;19.20;71.37
65707;SHT31;52423;43.512;5.220;2022-09-24T00:51:00;19.23;72.95
65707;SHT31;52423;43.512;5.220;2022-09-24T00:53:26;19.06;74.66
65707;SHT31;52423;43.512;5.220;2022-09-24T00:55:57;19.03;75.62
65707;SHT31;52423;43.512;5.220;2022-09-24T00:58:24;18.92;75.68
65707;SHT31;52423;43.512;5.220;2022-09-24T01:00:54;18.73;74.57
65707;SHT31;52423;43.512;5.220;2022-09-24T01:03:23;18.76;77.27
65707;SHT31;52423;43.512;5.220;2022-09-24T01:05:50;18.52;76.69
65707;SHT31;52423;43.512;5.220;2022-09-24T01:08:17;18.53;79.32
65707;SHT31;52423;43.512;5.220;2022-09-24T01:11:01;18.45;79.28
65707;SHT31;52423;43.512;5.220;2022-09-24T01:21:51;17.94;80.97
65707;SHT31;52423;43.512;5.220;2022-09-24T01:24:27;17.84;81.49
65707;SHT31;52423;43.512;5.220;2022-09-24T01:32:39;17.54;82.61
65707;SHT31;52423;43.512;5.220;2022-09-24T01:35:10;17.60;83.07
65707;SHT31;52423;43.512;5.220;2022-09-24T01:37:43;17.59;83.96
65707;SHT31;52423;43.512;5.220;2022-09-24T01:40:10;17.47;84.16
65707;SHT31;52423;43.512;5.220;2022-09-24T01:42:38;17.50;85.51
65707;SHT31;52423;43.512;5.220;2022-09-24T01:45:07;17.43;85.11
65707;SHT31;52423;43.512;5.220;2022-09-24T01:47:36;17.40;85.94
65707;SHT31;52423;43.512;5.220;2022-09-24T01:50:16;17.43;86.47
65707;SHT31;52423;43.512;5.220;2022-09-24T01:52:52;17.33;85.23
65707;SHT31;52423;43.512;5.220;2022-09-24T01:55:23;17.36;86.27
65707;SHT31;52423;43.512;5.220;2022-09-24T01:58:09;17.27;86.20
65707;SHT31;52423;43.512;5.220;2022-09-24T02:00:38;17.26;85.87
65707;SHT31;52423;43.512;5.220;2022-09-24T02:03:10;17.32;86.93
65707;SHT31;52423;43.512;5.220;2022-09-24T02:05:46;17.18;85.85
65707;SHT31;52423;43.512;5.220;2022-09-24T02:08:32;17.22;86.95
65707;SHT31;52423;43.512;5.220;2022-09-24T02:11:09;17.19;85.86
65707;SHT31;52423;43.512;5.220;2022-09-24T02:13:50;17.23;86.34
65707;SHT31;52423;43.512;5.220;2022-09-24T02:16:20;17.19;85.81
65707;SHT31;52423;43.512;5.220;2022-09-24T02:18:49;17.25;86.07
65707;SHT31;52423;43.512;5.220;2022-09-24T02:21:18;17.22;87.12
65707;SHT31;52423;43.512;5.220;2022-09-24T02:23:54;17.16;86.77
65707;SHT31;52423;43.512;5.220;2022-09-24T02:26:21;17.19;86.47
65707;SHT31;52423;43.512;5.220;2022-09-24T02:28:47;17.23;86.16
65707;SHT31;52423;43.512;5.220;2022-09-24T02:31:21;17.19;85.77
65707;SHT31;52423;43.512;5.220;2022-09-24T02:33:49;17.13;86.68
65707;SHT31;52423;43.512;5.220;2022-09-24T02:36:33;17.02;87.17
65707;SHT31;52423;43.512;5.220;2022-09-24T02:38:59;16.96;87.09
65707;SHT31;52423;43.512;5.220;2022-09-24T02:41:26;17.13;86.02
65707;SHT31;52423;43.512;5.220;2022-09-24T02:43:52;17.02;86.23
65707;SHT31;52423;43.512;5.220;2022-09-24T02:46:18;16.98;87.75
65707;SHT31;52423;43.512;5.220;2022-09-24T02:48:44;16.95;87.75
65707;SHT31;52423;43.512;5.220;2022-09-24T02:51:09;16.95;87.33
65707;SHT31;52423;43.512;5.220;2022-09-24T02:53:35;17.02;88.05
65707;SHT31;52423;43.512;5.220;2022-09-24T02:56:01;17.05;87.46
65707;SHT31;52423;43.512;5.220;2022-09-24T02:58:27;17.09;87.03
65707;SHT31;52423;43.512;5.220;2022-09-24T03:00:54;16.92;86.40
65707;SHT31;52423;43.512;5.220;2022-09-24T03:03:22;16.93;85.89
65707;SHT31;52423;43.512;5.220;2022-09-24T03:05:50;16.96;86.85
65707;SHT31;52423;43.512;5.220;2022-09-24T03:08:20;17.05;86.37
65707;SHT31;52423;43.512;5.220;2022-09-24T03:10:45;17.05;87.23
65707;SHT31;52423;43.512;5.220;2022-09-24T03:13:11;16.98;87.29
65707;SHT31;52423;43.512;5.220;2022-09-24T03:15:37;17.03;86.24
65707;SHT31;52423;43.512;5.220;2022-09-24T03:18:03;16.99;87.10
65707;SHT31;52423;43.512;5.220;2022-09-24T03:20:28;17.01;86.79
65707;SHT31;52423;43.512;5.220;2022-09-24T03:22:54;17.03;86.69
65707;SHT31;52423;43.512;5.220;2022-09-24T03:25:20;17.02;86.60
65707;SHT31;52423;43.512;5.220;2022-09-24T03:27:45;17.05;86.48
65707;SHT31;52423;43.512;5.220;2022-09-24T03:30:11;17.01;86.14
65707;SHT31;52423;43.512;5.220;2022-09-24T03:32:56;17.03;86.14
65707;SHT31;52423;43.512;5.220;2022-09-24T03:35:22;16.82;86.14
65707;SHT31;52423;43.512;5.220;2022-09-24T03:37:47;16.95;87.41
65707;SHT31;52423;43.512;5.220;2022-09-24T03:40:13;16.84;87.02
65707;SHT31;52423;43.512;5.220;2022-09-24T03:42:38;16.78;87.12
65707;SHT31;52423;43.512;5.220;2022-09-24T03:45:05;16.79;86.99
65707;SHT31;52423;43.512;5.220;2022-09-24T03:47:31;16.71;87.00
65707;SHT31;52423;43.512;5.220;2022-09-24T03:49:57;16.78;87.28
65707;SHT31;52423;43.512;5.220;2022-09-24T03:52:23;16.57;87.36
65707;SHT31;52423;43.512;5.220;2022-09-24T03:54:49;16.64;87.64
65707;SHT31;52423;43.512;5.220;2022-09-24T03:57:15;16.60;86.83
65707;SHT31;52423;43.512;5.220;2022-09-24T03:59:41;16.58;87.17
65707;SHT31;52423;43.512;5.220;2022-09-24T04:02:08;16.69;87.19
65707;SHT31;52423;43.512;5.220;2022-09-24T04:04:34;16.64;86.31
65707;SHT31;52423;43.512;5.220;2022-09-24T04:06:59;16.75;86.43
65707;SHT31;52423;43.512;5.220;2022-09-24T04:09:25;16.76;87.37
65707;SHT31;52423;43.512;5.220;2022-09-24T04:11:51;16.74;87.86
65707;SHT31;52423;43.512;5.220;2022-09-24T04:14:18;16.85;87.27
65707;SHT31;52423;43.512;5.220;2022-09-24T04:16:44;16.84;86.92
65707;SHT31;52423;43.512;5.220;2022-09-24T04:19:12;16.86;86.19
65707;SHT31;52423;43.512;5.220;2022-09-24T04:21:37;16.84;86.39
65707;SHT31;52423;43.512;5.220;2022-09-24T04:24:03;16.76;86.68
65707;SHT31;52423;43.512;5.220;2022-09-24T04:26:29;16.82;86.68
65707;SHT31;52423;43.512;5.220;2022-09-24T04:28:55;16.89;86.63
65707;SHT31;52423;43.512;5.220;2022-09-24T04:31:24;16.89;86.46
65707;SHT31;52423;43.512;5.220;2022-09-24T04:33:51;16.86;86.21
65707;SHT31;52423;43.512;5.220;2022-09-24T04:36:17;16.92;86.13
65707;SHT31;52423;43.512;5.220;2022-09-24T04:38:43;16.91;86.27
65707;SHT31;52423;43.512;5.220;2022-09-24T04:41:11;16.91;86.61
65707;SHT31;52423;43.512;5.220;2022-09-24T04:43:36;16.98;85.56
65707;SHT31;52423;43.512;5.220;2022-09-24T04:46:03;16.95;85.83
65707;SHT31;52423;43.512;5.220;2022-09-24T04:48:29;16.95;86.25
65707;SHT31;52423;43.512;5.220;2022-09-24T04:50:55;16.95;86.11
65707;SHT31;52423;43.512;5.220;2022-09-24T04:53:20;16.95;86.06
65707;SHT31;52423;43.512;5.220;2022-09-24T04:55:47;17.03;85.68
65707;SHT31;52423;43.512;5.220;2022-09-24T04:58:13;17.06;85.41
65707;SHT31;52423;43.512;5.220;2022-09-24T05:00:38;17.02;85.41
65707;SHT31;52423;43.512;5.220;2022-09-24T05:03:04;17.06;86.13
65707;SHT31;52423;43.512;5.220;2022-09-24T05:05:30;17.05;86.06
65707;SHT31;52423;43.512;5.220;2022-09-24T05:07:57;17.05;86.32
65707;SHT31;52423;43.512;5.220;2022-09-24T05:10:24;17.01;87.06
65707;SHT31;52423;43.512;5.220;2022-09-24T05:12:51;17.02;86.58
65707;SHT31;52423;43.512;5.220;2022-09-24T05:15:17;17.05;87.25
65707;SHT31;52423;43.512;5.220;2022-09-24T05:17:44;17.02;85.40
65707;SHT31;52423;43.512;5.220;2022-09-24T05:20:10;16.93;88.11
65707;SHT31;52423;43.512;5.220;2022-09-24T05:22:46;16.96;87.84
65707;SHT31;52423;43.512;5.220;2022-09-24T05:25:14;16.79;88.91
65707;SHT31;52423;43.512;5.220;2022-09-24T05:27:49;16.79;87.44
65707;SHT31;52423;43.512;5.220;2022-09-24T05:30:16;16.85;88.26
65707;SHT31;52423;43.512;5.220;2022-09-24T05:32:42;16.84;89.12
65707;SHT31;52423;43.512;5.220;2022-09-24T05:35:08;16.71;89.61
65707;SHT31;52423;43.512;5.220;2022-09-24T05:37:35;16.81;89.01
65707;SHT31;52423;43.512;5.220;2022-09-24T05:40:02;16.82;87.37
65707;SHT31;52423;43.512;5.220;2022-09-24T05:42:48;16.85;88.27
65707;SHT31;52423;43.512;5.220;2022-09-24T05:45:13;16.85;87.34
65707;SHT31;52423;43.512;5.220;2022-09-24T05:47:45;16.92;86.99
65707;SHT31;52423;43.512;5.220;2022-09-24T05:50:12;16.89;88.23
65707;SHT31;52423;43.512;5.220;2022-09-24T05:52:39;16.99;89.09
65707;SHT31;52423;43.512;5.220;2022-09-24T05:55:05;16.88;89.14
65707;SHT31;52423;43.512;5.220;2022-09-24T05:57:32;17.02;87.78
65707;SHT31;52423;43.512;5.220;2022-09-24T05:59:58;16.91;88.42
65707;SHT31;52423;43.512;5.220;2022-09-24T06:02:24;16.82;87.88
65707;SHT31;52423;43.512;5.220;2022-09-24T06:04:49;16.89;88.80
65707;SHT31;52423;43.512;5.220;2022-09-24T06:07:15;16.88;88.61
65707;SHT31;52423;43.512;5.220;2022-09-24T06:09:40;16.85;87.71
65707;SHT31;52423;43.512;5.220;2022-09-24T06:12:07;16.89;87.35
65707;SHT31;52423;43.512;5.220;2022-09-24T06:14:32;16.93;87.81
65707;SHT31;52423;43.512;5.220;2022-09-24T06:16:58;16.88;85.71
65707;SHT31;52423;43.512;5.220;2022-09-24T06:19:24;16.95;86.36
65707;SHT31;52423;43.512;5.220;2022-09-24T06:21:50;16.88;86.10
65707;SHT31;52423;43.512;5.220;2022-09-24T06:24:15;16.95;86.03
65707;SHT31;52423;43.512;5.220;2022-09-24T06:26:40;16.93;85.60
65707;SHT31;52423;43.512;5.220;2022-09-24T06:29:06;16.95;85.56
65707;SHT31;52423;43.512;5.220;2022-09-24T06:31:32;17.03;86.01
65707;SHT31;52423;43.512;5.220;2022-09-24T06:33:58;16.99;85.82
65707;SHT31;52423;43.512;5.220;2022-09-24T06:36:24;16.92;84.90
65707;SHT31;52423;43.512;5.220;2022-09-24T06:38:51;16.95;85.29
65707;SHT31;52423;43.512;5.220;2022-09-24T06:41:17;16.88;84.86
65707;SHT31;52423;43.512;5.220;2022-09-24T06:43:42;16.91;84.66
65707;SHT31;52423;43.512;5.220;2022-09-24T06:46:08;16.88;84.76
65707;SHT31;52423;43.512;5.220;2022-09-24T06:48:34;16.92;85.40
65707;SHT31;52423;43.512;5.220;2022-09-24T06:51:05;16.95;84.20
65707;SHT31;52423;43.512;5.220;2022-09-24T06:53:32;16.89;83.59
65707;SHT31;52423;43.512;5.220;2022-09-24T06:55:58;16.98;83.45
65707;SHT31;52423;43.512;5.220;2022-09-24T06:58:28;16.99;83.48
65707;SHT31;52423;43.512;5.220;2022-09-24T07:00:58;16.95;83.85
65707;SHT31;52423;43.512;5.220;2022-09-24T07:03:25;17.01;83.27
65707;SHT31;52423;43.512;5.220;2022-09-24T07:05:51;17.03;82.91
65707;SHT31;52423;43.512;5.220;2022-09-24T07:08:17;16.98;83.09
65707;SHT31;52423;43.512;5.220;2022-09-24T07:10:44;17.08;82.47
65707;SHT31;52423;43.512;5.220;2022-09-24T07:13:14;17.09;83.37
65707;SHT31;52423;43.512;5.220;2022-09-24T07:15:41;17.09;81.82
65707;SHT31;52423;43.512;5.220;2022-09-24T07:18:07;17.13;82.71
65707;SHT31;52423;43.512;5.220;2022-09-24T07:20:33;17.11;81.84
65707;SHT31;52423;43.512;5.220;2022-09-24T07:23:05;17.23;84.07
65707;SHT31;52423;43.512;5.220;2022-09-24T07:25:31;17.26;84.17
65707;SHT31;52423;43.512;5.220;2022-09-24T07:28:05;17.26;83.61
65707;SHT31;52423;43.512;5.220;2022-09-24T07:30:32;17.30;82.53
65707;SHT31;52423;43.512;5.220;2022-09-24T07:32:58;17.36;83.00
65707;SHT31;52423;43.512;5.220;2022-09-24T07:35:25;17.30;81.43
65707;SHT31;52423;43.512;5.220;2022-09-24T07:38:01;17.34;82.77
65707;SHT31;52423;43.512;5.220;2022-09-24T07:40:28;17.39;82.20
65707;SHT31;52423;43.512;5.220;2022-09-24T07:42:54;17.39;80.34
65707;SHT31;52423;43.512;5.220;2022-09-24T07:45:21;17.39;81.40
65707;SHT31;52423;43.512;5.220;2022-09-24T07:47:47;17.44;81.09
65707;SHT31;52423;43.512;5.220;2022-09-24T07:50:12;17.42;80.57
65707;SHT31;52423;43.512;5.220;2022-09-24T07:52:38;17.43;80.86
65707;SHT31;52423;43.512;5.220;2022-09-24T07:55:04;17.43;81.19
65707;SHT31;52423;43.512;5.220;2022-09-24T07:57:30;17.51;80.55
65707;SHT31;52423;43.512;5.220;2022-09-24T07:59:56;17.46;81.32
65707;SHT31;52423;43.512;5.220;2022-09-24T08:02:21;17.47;81.09
65707;SHT31;52423;43.512;5.220;2022-09-24T08:04:47;17.50;81.02
65707;SHT31;52423;43.512;5.220;2022-09-24T08:07:13;17.50;79.77
65707;SHT31;52423;43.512;5.220;2022-09-24T08:09:39;17.62;80.20
65707;SHT31;52423;43.512;5.220;2022-09-24T08:12:06;17.70;79.07
65707;SHT31;52423;43.512;5.220;2022-09-24T08:14:32;17.70;79.31
65707;SHT31;52423;43.512;5.220;2022-09-24T08:16:57;17.71;80.08
65707;SHT31;52423;43.512;5.220;2022-09-24T08:19:23;17.71;79.29
65707;SHT31;52423;43.512;5.220;2022-09-24T08:21:49;17.69;79.52
65707;SHT31;52423;43.512;5.220;2022-09-24T08:24:15;17.71;78.30
65707;SHT31;52423;43.512;5.220;2022-09-24T08:26:41;17.67;78.42
65707;SHT31;52423;43.512;5.220;2022-09-24T08:29:07;17.78;78.64
65707;SHT31;52423;43.512;5.220;2022-09-24T08:31:33;17.85;78.65
65707;SHT31;52423;43.512;5.220;2022-09-24T08:33:59;17.93;78.54
65707;SHT31;52423;43.512;5.220;2022-09-24T08:36:25;18.01;77.38
65707;SHT31;52423;43.512;5.220;2022-09-24T08:38:55;18.11;77.70
65707;SHT31;52423;43.512;5.220;2022-09-24T08:44:02;18.32;78.96
65707;SHT31;52423;43.512;5.220;2022-09-24T08:46:39;18.39;78.52
65707;SHT31;52423;43.512;5.220;2022-09-24T08:49:37;18.52;78.62
65707;SHT31;52423;43.512;5.220;2022-09-24T08:54:52;18.67;75.81
65707;SHT31;52423;43.512;5.220;2022-09-24T08:57:19;18.65;75.73
65707;SHT31;52423;43.512;5.220;2022-09-24T08:59:50;18.69;76.53
65707;SHT31;52423;43.512;5.220;2022-09-24T09:02:27;18.63;76.66
65707;SHT31;52423;43.512;5.220;2022-09-24T09:05:16;18.69;75.53
65707;SHT31;52423;43.512;5.220;2022-09-24T09:10:19;18.70;75.02
65707;SHT31;52423;43.512;5.220;2022-09-24T09:13:14;18.77;76.39
65707;SHT31;52423;43.512;5.220;2022-09-24T09:15:46;18.93;75.76
65707;SHT31;52423;43.512;5.220;2022-09-24T09:18:21;19.02;74.58
65707;SHT31;52423;43.512;5.220;2022-09-24T09:20:48;19.08;74.53
65707;SHT31;52423;43.512;5.220;2022-09-24T09:26:01;19.32;74.99
65707;SHT31;52423;43.512;5.220;2022-09-24T09:28:27;19.39;75.50
65707;SHT31;52423;43.512;5.220;2022-09-24T09:34:12;19.38;74.39
65707;SHT31;52423;43.512;5.220;2022-09-24T09:42:32;19.36;74.13
65707;SHT31;52423;43.512;5.220;2022-09-24T09:45:03;19.44;73.55
65707;SHT31;52423;43.512;5.220;2022-09-24T09:47:52;19.55;73.75
65707;SHT31;52423;43.512;5.220;2022-09-24T09:50:38;19.59;72.72
65707;SHT31;52423;43.512;5.220;2022-09-24T09:53:17;19.71;73.26
65707;SHT31;52423;43.512;5.220;2022-09-24T09:55:50;19.82;74.45
65707;SHT31;52423;43.512;5.220;2022-09-24T09:58:18;19.82;74.32
65707;SHT31;52423;43.512;5.220;2022-09-24T10:00:46;19.85;72.11
65707;SHT31;52423;43.512;5.220;2022-09-24T10:03:22;19.85;72.04
65707;SHT31;52423;43.512;5.220;2022-09-24T10:05:54;19.83;73.08
65707;SHT31;52423;43.512;5.220;2022-09-24T10:08:21;19.78;72.03
65707;SHT31;52423;43.512;5.220;2022-09-24T10:10:58;19.79;72.45
65707;SHT31;52423;43.512;5.220;2022-09-24T10:13:25;20.02;71.57
65707;SHT31;52423;43.512;5.220;2022-09-24T10:15:56;20.26;71.80
65707;SHT31;52423;43.512;5.220;2022-09-24T10:18:40;20.39;71.62
65707;SHT31;52423;43.512;5.220;2022-09-24T10:21:13;20.65;71.21
65707;SHT31;52423;43.512;5.220;2022-09-24T10:23:45;20.48;70.71
65707;SHT31;52423;43.512;5.220;2022-09-24T10:26:14;20.47;71.00
65707;SHT31;52423;43.512;5.220;2022-09-24T10:28:44;20.33;70.55
65707;SHT31;52423;43.512;5.220;2022-09-24T10:31:30;20.20;71.82
65707;SHT31;52423;43.512;5.220;2022-09-24T10:33:57;20.16;72.03
65707;SHT31;52423;43.512;5.220;2022-09-24T10:36:27;20.02;71.76
65707;SHT31;52423;43.512;5.220;2022-09-24T10:39:10;20.08;72.25
65707;SHT31;52423;43.512;5.220;2022-09-24T10:41:36;20.09;72.64
65707;SHT31;52423;43.512;5.220;2022-09-24T10:44:07;20.08;72.60
65707;SHT31;52423;43.512;5.220;2022-09-24T10:49:33;20.09;72.86
65707;SHT31;52423;43.512;5.220;2022-09-24T10:58:03;20.20;71.98
65707;SHT31;52423;43.512;5.220;2022-09-24T11:09:13;20.12;73.06
65707;SHT31;52423;43.512;5.220;2022-09-24T11:20:23;20.16;73.50
65707;SHT31;52423;43.512;5.220;2022-09-24T11:31:24;20.47;72.27
65707;SHT31;52423;43.512;5.220;2022-09-24T11:34:12;20.47;71.87
65707;SHT31;52423;43.512;5.220;2022-09-24T11:37:05;20.53;73.20
65707;SHT31;52423;43.512;5.220;2022-09-24T11:50:44;20.32;73.25
65707;SHT31;52423;43.512;5.220;2022-09-24T11:53:35;20.34;72.54
65707;SHT31;52423;43.512;5.220;2022-09-24T11:58:45;20.36;73.83
65707;SHT31;52423;43.512;5.220;2022-09-24T12:01:20;20.34;73.14
65707;SHT31;52423;43.512;5.220;2022-09-24T12:04:02;20.32;72.94
65707;SHT31;52423;43.512;5.220;2022-09-24T12:06:33;20.39;73.68
65707;SHT31;52423;43.512;5.220;2022-09-24T12:09:14;20.44;73.27
65707;SHT31;52423;43.512;5.220;2022-09-24T12:11:47;20.48;73.13
65707;SHT31;52423;43.512;5.220;2022-09-24T12:17:20;20.48;73.38
65707;SHT31;52423;43.512;5.220;2022-09-24T12:19:54;20.47;73.49
65707;SHT31;52423;43.512;5.220;2022-09-24T12:22:21;20.65;72.20
65707;SHT31;52423;43.512;5.220;2022-09-24T12:24:52;20.75;71.89
65707;SHT31;52423;43.512;5.220;2022-09-24T12:27:29;20.95;71.87
65707;SHT31;52423;43.512;5.220;2022-09-24T12:33:31;21.32;69.92
65707;SHT31;52423;43.512;5.220;2022-09-24T12:38:51;21.36;71.68
65707;SHT31;52423;43.512;5.220;2022-09-24T12:41:30;21.36;71.60
65707;SHT31;52423;43.512;5.220;2022-09-24T12:46:39;21.19;71.91
65707;SHT31;52423;43.512;5.220;2022-09-24T12:49:22;21.16;71.67
65707;SHT31;52423;43.512;5.220;2022-09-24T12:52:15;21.11;71.71
65707;SHT31;52423;43.512;5.220;2022-09-24T12:54:42;21.06;71.98
65707;SHT31;52423;43.512;5.220;2022-09-24T12:57:20;21.05;71.89
65707;SHT31;52423;43.512;5.220;2022-09-24T13:05:02;20.83;70.93
65707;SHT31;52423;43.512;5.220;2022-09-24T13:07:33;20.83;71.12
65707;SHT31;52423;43.512;5.220;2022-09-24T13:12:41;20.80;71.85
65707;SHT31;52423;43.512;5.220;2022-09-24T13:15:18;20.90;71.68
65707;SHT31;52423;43.512;5.220;2022-09-24T13:20:31;21.04;70.78
65707;SHT31;52423;43.512;5.220;2022-09-24T13:23:44;21.45;70.02
65707;SHT31;52423;43.512;5.220;2022-09-24T13:25:59;21.53;69.32
65707;SHT31;52423;43.512;5.220;2022-09-24T13:28:55;21.45;69.45
65707;SHT31;52423;43.512;5.220;2022-09-24T13:39:53;21.74;68.69
65707;SHT31;52423;43.512;5.220;2022-09-24T13:42:36;21.67;69.11
65707;SHT31;52423;43.512;5.220;2022-09-24T13:45:09;21.96;68.65
65707;SHT31;52423;43.512;5.220;2022-09-24T13:47:39;22.03;67.53
65707;SHT31;52423;43.512;5.220;2022-09-24T13:50:08;21.93;68.63
65707;SHT31;52423;43.512;5.220;2022-09-24T13:52:48;21.87;68.53
65707;SHT31;52423;43.512;5.220;2022-09-24T13:55:23;21.76;68.75
65707;SHT31;52423;43.512;5.220;2022-09-24T13:57:50;21.69;68.47
65707;SHT31;52423;43.512;5.220;2022-09-24T14:00:19;21.70;68.62
65707;SHT31;52423;43.512;5.220;2022-09-24T14:03:02;21.64;69.00
65707;SHT31;52423;43.512;5.220;2022-09-24T14:05:31;21.59;69.21
65707;SHT31;52423;43.512;5.220;2022-09-24T14:08:11;21.47;68.98
65707;SHT31;52423;43.512;5.220;2022-09-24T14:10:37;21.45;69.67
65707;SHT31;52423;43.512;5.220;2022-09-24T14:15:59;21.41;69.70
65707;SHT31;52423;43.512;5.220;2022-09-24T14:18:26;21.39;69.62
65707;SHT31;52423;43.512;5.220;2022-09-24T14:21:02;21.38;69.39
65707;SHT31;52423;43.512;5.220;2022-09-24T14:23:35;21.35;69.14
65707;SHT31;52423;43.512;5.220;2022-09-24T14:26:03;21.42;69.41
65707;SHT31;52423;43.512;5.220;2022-09-24T14:28:29;21.49;69.39
65707;SHT31;52423;43.512;5.220;2022-09-24T14:30:57;21.72;69.79
65707;SHT31;52423;43.512;5.220;2022-09-24T14:33:27;21.69;68.17
65707;SHT31;52423;43.512;5.220;2022-09-24T14:35:54;21.72;69.10
65707;SHT31;52423;43.512;5.220;2022-09-24T14:38:25;21.63;69.20
65707;SHT31;52423;43.512;5.220;2022-09-24T14:41:02;21.50;69.58
65707;SHT31;52423;43.512;5.220;2022-09-24T14:43:46;21.43;68.73
65707;SHT31;52423;43.512;5.220;2022-09-24T14:46:27;21.35;69.87
65707;SHT31;52423;43.512;5.220;2022-09-24T14:49:20;21.22;70.34
65707;SHT31;52423;43.512;5.220;2022-09-24T14:52:01;21.12;70.52
65707;SHT31;52423;43.512;5.220;2022-09-24T14:54:32;21.15;70.23
65707;SHT31;52423;43.512;5.220;2022-09-24T14:59:43;21.04;70.02
65707;SHT31;52423;43.512;5.220;2022-09-24T15:02:22;20.99;70.92
65707;SHT31;52423;43.512;5.220;2022-09-24T15:04:54;20.96;71.40
65707;SHT31;52423;43.512;5.220;2022-09-24T15:07:23;20.92;71.41
65707;SHT31;52423;43.512;5.220;2022-09-24T15:09:51;20.85;72.12
65707;SHT31;52423;43.512;5.220;2022-09-24T15:12:23;20.80;70.64
65707;SHT31;52423;43.512;5.220;2022-09-24T15:17:23;20.83;70.97
65707;SHT31;52423;43.512;5.220;2022-09-24T15:19:49;20.83;71.72
65707;SHT31;52423;43.512;5.220;2022-09-24T15:22:19;20.80;71.97
65707;SHT31;52423;43.512;5.220;2022-09-24T15:24:49;20.77;71.62
65707;SHT31;52423;43.512;5.220;2022-09-24T15:27:21;20.75;72.13
65707;SHT31;52423;43.512;5.220;2022-09-24T15:29:48;20.77;71.42
65707;SHT31;52423;43.512;5.220;2022-09-24T15:32:18;20.75;72.00
65707;SHT31;52423;43.512;5.220;2022-09-24T15:34:44;20.73;71.61
65707;SHT31;52423;43.512;5.220;2022-09-24T15:37:12;20.68;71.37
65707;SHT31;52423;43.512;5.220;2022-09-24T15:39:39;20.63;71.25
65707;SHT31;52423;43.512;5.220;2022-09-24T15:42:10;20.60;71.67
65707;SHT31;52423;43.512;5.220;2022-09-24T15:44:36;20.57;71.44
65707;SHT31;52423;43.512;5.220;2022-09-24T15:47:01;20.51;71.74
65707;SHT31;52423;43.512;5.220;2022-09-24T15:49:27;20.51;71.60
65707;SHT31;52423;43.512;5.220;2022-09-24T15:52:00;20.51;71.97
65707;SHT31;52423;43.512;5.220;2022-09-24T15:54:26;20.61;71.26
65707;SHT31;52423;43.512;5.220;2022-09-24T15:56:52;20.54;71.18
65707;SHT31;52423;43.512;5.220;2022-09-24T15:59:20;20.58;70.68
65707;SHT31;52423;43.512;5.220;2022-09-24T16:01:47;20.60;71.02
65707;SHT31;52423;43.512;5.220;2022-09-24T16:04:14;20.47;71.62
65707;SHT31;52423;43.512;5.220;2022-09-24T16:06:39;20.51;71.45
65707;SHT31;52423;43.512;5.220;2022-09-24T16:09:05;20.41;72.03
65707;SHT31;52423;43.512;5.220;2022-09-24T16:11:31;20.36;71.29
65707;SHT31;52423;43.512;5.220;2022-09-24T16:13:56;20.30;71.80
65707;SHT31;52423;43.512;5.220;2022-09-24T16:16:22;20.32;71.78
65707;SHT31;52423;43.512;5.220;2022-09-24T16:18:47;20.32;72.33
65707;SHT31;52423;43.512;5.220;2022-09-24T16:21:13;20.29;71.86
65707;SHT31;52423;43.512;5.220;2022-09-24T16:23:39;20.27;71.71
65707;SHT31;52423;43.512;5.220;2022-09-24T16:26:05;20.33;72.76
65707;SHT31;52423;43.512;5.220;2022-09-24T16:28:30;20.27;73.24
65707;SHT31;52423;43.512;5.220;2022-09-24T16:30:56;20.26;74.05
65707;SHT31;52423;43.512;5.220;2022-09-24T16:33:23;20.29;74.96
65707;SHT31;52423;43.512;5.220;2022-09-24T16:35:49;20.30;75.90
65707;SHT31;52423;43.512;5.220;2022-09-24T16:38:15;20.30;76.84
65707;SHT31;52423;43.512;5.220;2022-09-24T16:40:41;20.32;77.17
65707;SHT31;52423;43.512;5.220;2022-09-24T16:43:06;20.40;77.93
65707;SHT31;52423;43.512;5.220;2022-09-24T16:45:32;20.39;78.29
65707;SHT31;52423;43.512;5.220;2022-09-24T16:47:58;20.39;78.46
65707;SHT31;52423;43.512;5.220;2022-09-24T16:50:24;20.33;78.56
65707;SHT31;52423;43.512;5.220;2022-09-24T16:52:50;20.36;78.95
65707;SHT31;52423;43.512;5.220;2022-09-24T16:55:19;20.27;78.96
65707;SHT31;52423;43.512;5.220;2022-09-24T16:57:45;20.23;79.29
65707;SHT31;52423;43.512;5.220;2022-09-24T17:00:11;20.20;79.46
65707;SHT31;52423;43.512;5.220;2022-09-24T17:02:36;20.19;79.42
65707;SHT31;52423;43.512;5.220;2022-09-24T17:05:03;20.12;79.51
65707;SHT31;52423;43.512;5.220;2022-09-24T17:07:29;20.08;79.72
65707;SHT31;52423;43.512;5.220;2022-09-24T17:09:56;20.05;79.81
65707;SHT31;52423;43.512;5.220;2022-09-24T17:12:58;20.06;80.27
65707;SHT31;52423;43.512;5.220;2022-09-24T17:15:23;20.00;80.03
65707;SHT31;52423;43.512;5.220;2022-09-24T17:17:49;19.97;80.43
65707;SHT31;52423;43.512;5.220;2022-09-24T17:20:15;19.95;80.36
65707;SHT31;52423;43.512;5.220;2022-09-24T17:22:40;19.93;80.25
65707;SHT31;52423;43.512;5.220;2022-09-24T17:25:06;19.93;80.19
65707;SHT31;52423;43.512;5.220;2022-09-24T17:27:33;19.93;80.40
65707;SHT31;52423;43.512;5.220;2022-09-24T17:30:02;19.99;80.38
65707;SHT31;52423;43.512;5.220;2022-09-24T17:32:28;20.03;80.22
65707;SHT31;52423;43.512;5.220;2022-09-24T17:34:53;19.99;80.57
65707;SHT31;52423;43.512;5.220;2022-09-24T17:37:19;20.05;80.40
65707;SHT31;52423;43.512;5.220;2022-09-24T17:39:45;20.06;80.26
65707;SHT31;52423;43.512;5.220;2022-09-24T17:42:11;19.99;80.47
65707;SHT31;52423;43.512;5.220;2022-09-24T17:44:37;19.92;80.56
65707;SHT31;52423;43.512;5.220;2022-09-24T17:47:02;19.93;80.42
65707;SHT31;52423;43.512;5.220;2022-09-24T17:49:28;19.87;80.56